createdAt,value
2019-01-04T00:00:55.368Z,9.47
2019-01-04T00:03:23.204Z,9.03
2019-01-04T00:05:51.077Z,9.63
2019-01-04T00:08:18.946Z,11.43
2019-01-04T00:10:46.729Z,9.40
2019-01-04T00:13:14.534Z,9.77
2019-01-04T00:15:42.399Z,10.13
2019-01-04T00:18:10.245Z,10.23
2019-01-04T00:20:38.043Z,10.07
2019-01-04T00:23:05.816Z,9.37
2019-01-04T00:25:33.621Z,9.50
2019-01-04T00:28:01.380Z,9.50
2019-01-04T00:30:29.159Z,9.37
2019-01-04T00:32:56.935Z,11.47
2019-01-04T00:35:24.693Z,10.60
2019-01-04T00:37:52.562Z,9.90
2019-01-04T00:40:20.377Z,10.43
2019-01-04T00:42:48.185Z,10.93
2019-01-04T00:45:15.979Z,9.60
2019-01-04T00:47:43.781Z,10.47
2019-01-04T00:50:11.546Z,10.73
2019-01-04T00:52:39.285Z,11.23
2019-01-04T00:55:41.885Z,10.87
2019-01-04T00:59:10.194Z,11.33
2019-01-04T01:02:19.389Z,10.53
2019-01-04T01:05:43.717Z,10.23
2019-01-04T01:08:59.058Z,11.30
2019-01-04T01:12:38.547Z,10.50
2019-01-04T01:16:11.047Z,11.00
2019-01-04T01:19:40.444Z,11.23
2019-01-04T01:23:06.283Z,10.33
2019-01-04T01:26:49.934Z,11.10
2019-01-04T01:30:15.245Z,11.57
2019-01-04T01:33:25.366Z,10.47
2019-01-04T01:37:03.082Z,11.37
2019-01-04T01:40:33.281Z,11.07
2019-01-04T01:44:16.448Z,11.30
2019-01-04T01:47:23.849Z,11.13
2019-01-04T01:50:32.795Z,11.17
2019-01-04T01:53:00.615Z,11.23
2019-01-04T01:55:28.415Z,11.07
2019-01-04T01:57:56.328Z,11.03
2019-01-04T02:00:24.134Z,11.33
2019-01-04T02:02:51.913Z,10.47
2019-01-04T02:05:19.796Z,11.30
2019-01-04T02:07:47.626Z,11.87
2019-01-04T02:10:15.420Z,11.97
2019-01-04T02:12:43.227Z,12.03
2019-01-04T02:15:11.024Z,12.37
2019-01-04T02:17:38.842Z,11.70
2019-01-04T02:20:06.958Z,11.37
2019-01-04T02:22:34.761Z,11.73
2019-01-04T02:25:04.766Z,12.80
2019-01-04T02:27:34.250Z,11.73
2019-01-04T02:30:02.116Z,13.00
2019-01-04T02:32:31.480Z,14.20
2019-01-04T02:34:59.285Z,14.37
2019-01-04T02:37:27.063Z,13.80
2019-01-04T02:39:54.926Z,14.27
2019-01-04T02:42:22.797Z,14.13
2019-01-04T02:44:50.579Z,14.50
2019-01-04T02:47:18.362Z,13.63
2019-01-04T02:49:46.169Z,16.07
2019-01-04T02:52:13.969Z,15.27
2019-01-04T02:54:41.739Z,14.87
2019-01-04T02:57:09.669Z,15.30
2019-01-04T02:59:37.426Z,16.50
2019-01-04T03:02:07.180Z,15.97
2019-01-04T03:04:34.968Z,15.83
2019-01-04T03:07:02.713Z,14.97
2019-01-04T03:09:30.488Z,15.23
2019-01-04T03:11:58.229Z,16.43
2019-01-04T03:14:26.003Z,15.90
2019-01-04T03:16:53.799Z,15.40
2019-01-04T03:19:21.625Z,16.77
2019-01-04T03:21:49.404Z,15.70
2019-01-04T03:24:17.163Z,15.70
2019-01-04T03:26:44.977Z,16.77
2019-01-04T03:29:12.760Z,15.63
2019-01-04T03:31:40.543Z,15.60
2019-01-04T03:34:08.311Z,15.60
2019-01-04T03:36:36.094Z,15.70
2019-01-04T03:39:04.215Z,14.70
2019-01-04T03:41:32.164Z,15.30
2019-01-04T03:43:59.950Z,14.67
2019-01-04T03:46:27.693Z,15.70
2019-01-04T03:48:55.488Z,14.90
2019-01-04T03:51:23.259Z,14.93
2019-01-04T03:53:51.025Z,15.10
2019-01-04T03:56:18.758Z,13.10
2019-01-04T03:58:46.546Z,16.07
2019-01-04T04:01:14.337Z,15.83
2019-01-04T04:03:42.112Z,14.37
2019-01-04T04:06:09.890Z,16.20
2019-01-04T04:08:37.680Z,16.00
2019-01-04T04:11:05.450Z,15.70
2019-01-04T04:13:33.258Z,14.70
2019-01-04T04:16:01.027Z,14.07
2019-01-04T04:18:28.872Z,15.87
2019-01-04T04:20:56.650Z,14.50
2019-01-04T04:23:24.452Z,13.93
2019-01-04T04:25:52.243Z,14.30
2019-01-04T04:28:19.996Z,15.13
2019-01-04T04:30:47.811Z,14.43
2019-01-04T04:33:15.578Z,14.00
2019-01-04T04:35:43.411Z,14.23
2019-01-04T04:38:11.260Z,14.20
2019-01-04T04:40:39.126Z,14.67
2019-01-04T04:43:06.889Z,13.97
2019-01-04T04:45:34.681Z,12.93
2019-01-04T04:48:02.480Z,14.77
2019-01-04T04:50:30.286Z,13.70
2019-01-04T04:52:58.047Z,14.10
2019-01-04T04:55:25.864Z,13.40
2019-01-04T04:57:53.645Z,12.90
2019-01-04T05:00:21.803Z,12.43
2019-01-04T05:02:49.587Z,13.10
2019-01-04T05:05:17.397Z,13.77
2019-01-04T05:07:45.123Z,12.40
2019-01-04T05:10:12.917Z,12.03
2019-01-04T05:12:40.679Z,11.90
2019-01-04T05:15:08.521Z,11.73
2019-01-04T05:17:41.221Z,12.20
2019-01-04T05:20:08.958Z,10.83
2019-01-04T05:22:36.719Z,10.27
2019-01-04T05:25:04.569Z,11.17
2019-01-04T05:27:32.359Z,11.13
2019-01-04T05:30:00.409Z,12.23
2019-01-04T05:32:28.261Z,11.53
2019-01-04T05:34:56.196Z,10.90
2019-01-04T05:37:48.991Z,10.23
2019-01-04T05:40:14.314Z,11.80
2019-01-04T05:42:42.103Z,11.40
2019-01-04T05:45:09.950Z,10.90
2019-01-04T05:47:37.709Z,10.80
2019-01-04T05:50:06.058Z,10.30
2019-01-04T05:52:33.809Z,10.60
2019-01-04T05:55:01.577Z,11.17
2019-01-04T05:57:29.427Z,10.00
2019-01-04T05:59:57.180Z,10.60
2019-01-04T06:02:25.018Z,10.93
2019-01-04T06:05:03.449Z,13.07
2019-01-04T06:07:31.288Z,11.57
2019-01-04T06:09:59.164Z,10.43
2019-01-04T06:12:27.095Z,9.43
2019-01-04T06:14:54.945Z,9.23
2019-01-04T06:17:22.725Z,8.97
2019-01-04T06:19:50.500Z,9.80
2019-01-04T06:22:18.326Z,9.30
2019-01-04T06:24:46.130Z,8.87
2019-01-04T06:27:13.912Z,8.83
2019-01-04T06:29:41.729Z,8.80
2019-01-04T06:32:09.514Z,7.70
2019-01-04T06:34:37.250Z,8.17
2019-01-04T06:37:05.043Z,8.20
2019-01-04T06:39:32.838Z,7.30
2019-01-04T06:42:00.592Z,7.37
2019-01-04T06:44:28.354Z,7.67
2019-01-04T06:47:13.378Z,7.40
2019-01-04T06:49:41.103Z,7.77
2019-01-04T06:52:08.942Z,6.93
2019-01-04T06:55:40.170Z,6.83
2019-01-04T06:58:07.937Z,6.43
2019-01-04T07:00:35.732Z,8.57
2019-01-04T07:03:03.549Z,7.13
2019-01-04T07:05:31.826Z,5.43
2019-01-04T07:07:59.701Z,5.67
2019-01-04T07:10:27.509Z,6.13
2019-01-04T07:12:55.301Z,5.40
2019-01-04T07:15:23.057Z,5.20
2019-01-04T07:17:50.885Z,4.97
2019-01-04T07:20:20.511Z,6.07
2019-01-04T07:22:48.342Z,4.97
2019-01-04T07:25:16.104Z,5.43
2019-01-04T07:27:43.891Z,5.40
2019-01-04T07:30:11.645Z,5.17
2019-01-04T07:32:39.400Z,4.90
2019-01-04T07:35:07.163Z,5.17
2019-01-04T07:37:34.930Z,6.00
2019-01-04T07:40:02.795Z,5.20
2019-01-04T07:42:30.555Z,5.00
2019-01-04T07:44:58.287Z,5.70
2019-01-04T07:47:26.086Z,5.90
2019-01-04T07:49:53.823Z,5.97
2019-01-04T07:52:21.674Z,5.80
2019-01-04T07:54:49.487Z,5.80
2019-01-04T07:57:17.246Z,5.70
2019-01-04T07:59:45.034Z,5.60
2019-01-04T08:02:41.530Z,5.80
2019-01-04T08:05:12.974Z,5.27
2019-01-04T08:07:40.815Z,6.03
2019-01-04T08:10:09.303Z,5.80
2019-01-04T08:12:37.096Z,6.10
2019-01-04T08:15:05.562Z,6.37
2019-01-04T08:17:33.322Z,6.27
2019-01-04T08:20:01.274Z,5.43
2019-01-04T08:22:29.098Z,6.53
2019-01-04T08:24:56.891Z,5.80
2019-01-04T08:27:24.675Z,5.97
2019-01-04T08:29:52.738Z,6.23
2019-01-04T08:32:20.516Z,6.50
2019-01-04T08:34:48.294Z,6.47
2019-01-04T08:37:16.134Z,6.40
2019-01-04T08:39:43.908Z,6.50
2019-01-04T08:42:11.706Z,6.70
2019-01-04T08:44:39.486Z,6.60
2019-01-04T08:47:07.262Z,7.20
2019-01-04T08:49:35.067Z,6.67
2019-01-04T08:52:02.953Z,6.00
2019-01-04T08:54:30.745Z,6.80
2019-01-04T08:56:58.602Z,6.60
2019-01-04T08:59:26.375Z,7.17
2019-01-04T09:01:54.141Z,8.20
2019-01-04T09:04:21.937Z,8.60
2019-01-04T09:06:49.931Z,8.33
2019-01-04T09:09:17.703Z,8.23
2019-01-04T09:11:45.489Z,8.73
2019-01-04T09:14:13.319Z,8.43
2019-01-04T09:16:41.070Z,7.77
2019-01-04T09:19:08.874Z,8.33
2019-01-04T09:21:36.670Z,8.10
2019-01-04T09:24:04.389Z,7.53
2019-01-04T09:26:32.190Z,7.97
2019-01-04T09:28:59.998Z,7.43
2019-01-04T09:31:27.786Z,8.70
2019-01-04T09:33:55.588Z,8.30
2019-01-04T09:36:23.419Z,8.03
2019-01-04T09:38:51.680Z,8.77
2019-01-04T09:41:40.510Z,9.03
2019-01-04T09:44:08.283Z,8.13
2019-01-04T09:46:36.055Z,8.40
2019-01-04T09:49:03.788Z,8.43
2019-01-04T09:51:31.557Z,8.10
2019-01-04T09:53:59.315Z,8.07
2019-01-04T09:56:27.102Z,8.80
2019-01-04T09:58:54.847Z,8.60
2019-01-04T10:01:22.672Z,8.30
2019-01-04T10:03:50.398Z,9.07
2019-01-04T10:06:18.172Z,8.30
2019-01-04T10:08:45.959Z,8.40
2019-01-04T10:11:13.860Z,8.10
2019-01-04T10:13:41.654Z,8.47
2019-01-04T10:16:09.386Z,8.37
2019-01-04T10:18:37.299Z,7.93
2019-01-04T10:21:05.070Z,8.30
2019-01-04T10:23:32.836Z,7.63
2019-01-04T10:26:00.612Z,7.90
2019-01-04T10:28:28.420Z,7.13
2019-01-04T10:30:56.478Z,8.63
2019-01-04T10:33:24.197Z,7.53
2019-01-04T10:35:52.138Z,7.77
2019-01-04T10:38:19.878Z,7.60
2019-01-04T10:40:47.675Z,8.67
2019-01-04T10:43:15.460Z,8.10
2019-01-04T10:45:43.164Z,7.70
2019-01-04T10:48:10.918Z,8.50
2019-01-04T10:50:38.687Z,8.63
2019-01-04T10:53:06.458Z,9.90
2019-01-04T10:55:34.228Z,8.93
2019-01-04T10:58:02.024Z,7.93
2019-01-04T11:00:29.763Z,8.80
2019-01-04T11:02:57.758Z,9.00
2019-01-04T11:05:25.479Z,8.43
2019-01-04T11:07:53.264Z,7.57
2019-01-04T11:10:22.167Z,6.70
2019-01-04T11:12:50.208Z,7.20
2019-01-04T11:15:17.960Z,6.97
2019-01-04T11:17:45.839Z,7.53
2019-01-04T11:20:42.906Z,7.30
2019-01-04T11:24:26.211Z,7.57
2019-01-04T11:27:14.762Z,7.03
2019-01-04T11:30:31.079Z,6.90
2019-01-04T11:33:45.356Z,6.97
2019-01-04T11:36:52.107Z,6.90
2019-01-04T11:40:15.131Z,7.00
2019-01-04T11:43:38.153Z,6.93
2019-01-04T11:46:56.088Z,6.87
2019-01-04T11:50:04.569Z,6.83
2019-01-04T11:52:56.433Z,7.20
2019-01-04T11:55:24.223Z,6.83
2019-01-04T11:57:52.015Z,7.10
2019-01-04T12:00:19.809Z,7.70
2019-01-04T12:02:47.567Z,7.30
2019-01-04T12:05:16.315Z,7.13
2019-01-04T12:07:44.064Z,7.20
2019-01-04T12:10:12.138Z,7.47
2019-01-04T12:12:39.940Z,7.50
2019-01-04T12:15:07.810Z,7.20
2019-01-04T12:17:35.862Z,7.70
2019-01-04T12:20:04.610Z,7.00
2019-01-04T12:22:32.378Z,6.70
2019-01-04T12:25:00.164Z,6.70
2019-01-04T12:27:27.982Z,7.00
2019-01-04T12:29:55.706Z,6.43
2019-01-04T12:32:23.496Z,7.90
2019-01-04T12:34:51.294Z,7.13
2019-01-04T12:37:19.082Z,7.33
2019-01-04T12:39:46.848Z,7.47
2019-01-04T12:42:14.618Z,7.53
2019-01-04T12:44:42.403Z,6.53
2019-01-04T12:47:10.187Z,6.97
2019-01-04T12:49:37.967Z,6.57
2019-01-04T12:52:05.737Z,6.00
2019-01-04T12:54:33.516Z,5.93
2019-01-04T12:57:01.293Z,6.27
2019-01-04T12:59:29.130Z,6.20
2019-01-04T13:01:56.921Z,5.13
2019-01-04T13:04:24.654Z,5.20
2019-01-04T13:06:52.450Z,4.97
2019-01-04T13:09:20.230Z,5.00
2019-01-04T13:11:48.063Z,5.13
2019-01-04T13:14:15.848Z,5.33
2019-01-04T13:16:43.663Z,4.73
2019-01-04T13:19:11.405Z,5.27
2019-01-04T13:21:39.217Z,4.60
2019-01-04T13:24:07.411Z,5.17
2019-01-04T13:26:35.231Z,5.00
2019-01-04T13:29:03.046Z,5.50
2019-01-04T13:31:30.787Z,5.23
2019-01-04T13:33:58.601Z,5.27
2019-01-04T13:36:26.397Z,5.30
2019-01-04T13:38:54.205Z,5.07
2019-01-04T13:41:22.040Z,5.33
2019-01-04T13:43:50.152Z,5.50
2019-01-04T13:46:20.174Z,4.77
2019-01-04T13:48:47.980Z,5.33
2019-01-04T13:51:15.743Z,4.93
2019-01-04T13:53:43.613Z,4.90
2019-01-04T13:56:11.389Z,4.37
2019-01-04T13:58:39.175Z,5.07
2019-01-04T14:01:07.007Z,5.50
2019-01-04T14:03:37.237Z,4.73
2019-01-04T14:06:06.122Z,4.90
2019-01-04T14:08:33.984Z,5.10
2019-01-04T14:11:01.769Z,4.80
2019-01-04T14:13:29.576Z,4.90
2019-01-04T14:15:57.349Z,4.80
2019-01-04T14:18:25.133Z,4.80
2019-01-04T14:20:52.882Z,4.50
2019-01-04T14:23:20.650Z,4.90
2019-01-04T14:26:01.892Z,4.87
2019-01-04T14:28:29.766Z,4.13
2019-01-04T14:30:57.566Z,4.60
2019-01-04T14:33:25.370Z,4.40
2019-01-04T14:35:53.155Z,4.53
2019-01-04T14:38:20.929Z,4.50
2019-01-04T14:40:48.782Z,3.80
2019-01-04T14:43:16.541Z,4.50
2019-01-04T14:46:02.750Z,4.10
2019-01-04T14:48:30.584Z,3.83
2019-01-04T14:50:58.379Z,3.97
2019-01-04T14:53:26.150Z,4.07
2019-01-04T14:55:53.950Z,4.03
2019-01-04T14:58:21.690Z,3.80
2019-01-04T15:00:49.472Z,3.40
2019-01-04T15:03:17.232Z,3.90
2019-01-04T15:05:50.302Z,4.00
2019-01-04T15:12:00.786Z,4.33
2019-01-04T15:14:28.604Z,4.40
2019-01-04T15:16:56.384Z,6.50
2019-01-04T15:19:24.178Z,4.63
2019-01-04T15:21:51.976Z,4.37
2019-01-04T15:24:19.731Z,4.77
2019-01-04T15:26:47.491Z,4.50
2019-01-04T15:29:15.794Z,4.97
2019-01-04T15:31:43.619Z,5.00
2019-01-04T15:34:11.405Z,4.90
2019-01-04T15:36:39.254Z,4.87
2019-01-04T15:39:07.549Z,5.03
2019-01-04T15:41:35.374Z,5.20
2019-01-04T15:44:03.225Z,5.20
2019-01-04T15:46:31.060Z,5.70
2019-01-04T15:48:58.893Z,5.50
2019-01-04T15:51:26.697Z,5.30
2019-01-04T15:53:54.673Z,4.73
2019-01-04T15:56:22.521Z,5.23
2019-01-04T15:58:50.279Z,5.37
2019-01-04T16:01:20.970Z,5.53
2019-01-04T16:03:48.782Z,5.57
2019-01-04T16:06:16.575Z,6.27
2019-01-04T16:08:44.315Z,5.93
2019-01-04T16:11:12.139Z,7.80
2019-01-04T16:13:39.982Z,6.33
2019-01-04T16:16:07.778Z,6.20
2019-01-04T16:18:35.517Z,6.63
2019-01-04T16:21:03.310Z,5.90
2019-01-04T16:23:31.048Z,6.47
2019-01-04T16:25:58.795Z,6.37
2019-01-04T16:28:26.542Z,6.13
2019-01-04T16:30:54.469Z,7.10
2019-01-04T16:33:22.254Z,6.80
2019-01-04T16:35:50.032Z,6.40
2019-01-04T16:38:17.827Z,6.83
2019-01-04T16:40:45.602Z,6.90
2019-01-04T16:43:14.918Z,6.40
2019-01-04T16:45:44.195Z,6.50
2019-01-04T16:48:12.132Z,6.53
2019-01-04T16:50:39.850Z,6.43
2019-01-04T16:53:08.414Z,6.97
2019-01-04T16:55:36.182Z,7.17
2019-01-04T16:58:03.964Z,6.63
2019-01-04T17:00:31.753Z,8.17
2019-01-04T17:02:59.541Z,6.87
2019-01-04T17:05:27.326Z,6.73
2019-01-04T17:07:55.106Z,7.00
2019-01-04T17:10:22.868Z,6.80
2019-01-04T17:12:51.468Z,6.90
2019-01-04T17:15:19.238Z,6.90
2019-01-04T17:17:46.997Z,7.17
2019-01-04T17:20:14.747Z,6.30
2019-01-04T17:22:42.524Z,7.30
2019-01-04T17:25:10.297Z,5.93
2019-01-04T17:27:38.059Z,6.60
2019-01-04T17:30:07.526Z,6.57
2019-01-04T17:32:35.354Z,6.50
2019-01-04T17:35:03.361Z,5.70
2019-01-04T17:37:31.166Z,6.43
2019-01-04T17:39:59.259Z,6.57
2019-01-04T17:42:27.033Z,5.90
2019-01-04T17:44:54.808Z,6.70
2019-01-04T17:47:22.627Z,6.97
2019-01-04T17:49:50.551Z,6.27
2019-01-04T17:52:18.290Z,6.30
2019-01-04T17:54:46.059Z,6.03
2019-01-04T17:57:13.833Z,6.57
2019-01-04T17:59:41.656Z,6.80
2019-01-04T18:02:09.496Z,6.37
2019-01-04T18:04:37.295Z,7.67
2019-01-04T18:07:05.147Z,7.73
2019-01-04T18:09:33.007Z,6.83
2019-01-04T18:12:00.773Z,5.83
2019-01-04T18:14:28.575Z,5.80
2019-01-04T18:16:56.381Z,5.93
2019-01-04T18:19:24.209Z,6.43
2019-01-04T18:21:52.018Z,6.33
2019-01-04T18:24:19.846Z,5.87
2019-01-04T18:26:49.397Z,6.20
2019-01-04T18:29:17.168Z,6.00
2019-01-04T18:31:47.540Z,5.70
2019-01-04T18:34:18.452Z,6.73
2019-01-04T18:36:46.564Z,6.33
2019-01-04T18:39:14.366Z,6.90
2019-01-04T18:41:42.227Z,6.83
2019-01-04T18:44:10.047Z,6.53
2019-01-04T18:46:37.929Z,6.13
2019-01-04T18:49:05.706Z,6.47
2019-01-04T18:51:33.486Z,6.47
2019-01-04T18:54:01.274Z,6.50
2019-01-04T18:56:29.062Z,6.10
2019-01-04T18:58:56.857Z,6.57
2019-01-04T19:01:24.600Z,6.43
2019-01-04T19:03:53.273Z,6.90
2019-01-04T19:06:21.090Z,6.37
2019-01-04T19:08:48.914Z,6.97
2019-01-04T19:11:16.641Z,6.87
2019-01-04T19:13:44.438Z,6.90
2019-01-04T19:16:12.243Z,6.93
2019-01-04T19:18:40.053Z,7.00
2019-01-04T19:21:10.096Z,7.03
2019-01-04T19:23:39.666Z,6.93
2019-01-04T19:26:07.578Z,7.47
2019-01-04T19:28:35.335Z,6.73
2019-01-04T19:31:03.267Z,7.30
2019-01-04T19:33:31.058Z,6.90
2019-01-04T19:35:58.866Z,6.03
2019-01-04T19:38:26.682Z,6.60
2019-01-04T19:40:54.445Z,7.23
2019-01-04T19:43:22.241Z,6.87
2019-01-04T19:45:50.042Z,7.07
2019-01-04T19:48:17.813Z,7.07
2019-01-04T19:50:45.653Z,7.50
2019-01-04T19:53:13.541Z,6.70
2019-01-04T19:55:44.102Z,6.27
2019-01-04T19:58:11.926Z,6.33
2019-01-04T20:00:39.727Z,6.93
2019-01-04T20:03:09.823Z,7.30
2019-01-04T20:07:02.017Z,7.20
2019-01-04T20:10:43.893Z,7.20
2019-01-04T20:14:33.129Z,7.00
2019-01-04T20:17:20.562Z,6.93
2019-01-04T20:20:09.437Z,7.13
2019-01-04T20:22:56.602Z,6.60
2019-01-04T20:25:43.820Z,7.10
2019-01-04T20:28:40.155Z,6.70
2019-01-04T20:31:47.784Z,6.93
2019-01-04T20:34:35.196Z,7.20
2019-01-04T20:37:25.420Z,6.97
2019-01-04T20:40:18.897Z,7.10
2019-01-04T20:43:08.861Z,7.07
2019-01-04T20:45:59.076Z,6.83
2019-01-04T20:49:01.628Z,7.30
2019-01-04T20:51:42.822Z,7.27
2019-01-04T20:54:28.691Z,7.60
2019-01-04T20:57:16.136Z,7.70
2019-01-04T21:00:03.574Z,7.60
2019-01-04T21:03:00.143Z,6.97
2019-01-04T21:05:50.293Z,7.77
2019-01-04T21:08:46.534Z,8.10
2019-01-04T21:11:34.004Z,7.13
2019-01-04T21:14:30.148Z,7.03
2019-01-04T21:17:28.395Z,6.97
2019-01-04T21:20:25.033Z,7.13
2019-01-04T21:23:24.543Z,7.07
2019-01-04T21:26:23.885Z,6.60
2019-01-04T21:29:11.304Z,6.50
2019-01-04T21:31:57.377Z,6.50
2019-01-04T21:34:56.977Z,5.97
2019-01-04T21:37:38.957Z,5.83
2019-01-04T21:40:24.739Z,6.27
2019-01-04T21:43:26.873Z,5.47
2019-01-04T21:46:12.649Z,6.07
2019-01-04T21:48:55.295Z,5.93
2019-01-04T21:51:45.822Z,6.07
2019-01-04T21:54:29.472Z,5.63
2019-01-04T21:57:23.041Z,5.43
2019-01-04T22:00:13.271Z,6.17
2019-01-04T22:03:09.721Z,5.67
2019-01-04T22:05:54.593Z,5.90
2019-01-04T22:08:42.128Z,5.67
2019-01-04T22:11:38.482Z,5.97
2019-01-04T22:14:40.839Z,5.17
2019-01-04T22:17:26.926Z,5.33
2019-01-04T22:20:12.721Z,5.47
2019-01-04T22:23:06.303Z,5.60
2019-01-04T22:25:52.116Z,4.90
2019-01-04T22:28:45.507Z,5.57
2019-01-04T22:31:32.896Z,5.27
2019-01-04T22:34:20.299Z,4.50
2019-01-04T22:37:19.810Z,4.83
2019-01-04T22:40:02.480Z,5.10
2019-01-04T22:42:48.472Z,6.00
2019-01-04T22:45:35.872Z,5.30
2019-01-04T22:48:38.670Z,4.80
2019-01-04T22:51:24.584Z,4.80
2019-01-04T22:54:10.657Z,5.00
2019-01-04T22:57:00.557Z,4.70
2019-01-04T22:59:47.432Z,4.40
2019-01-04T23:02:33.451Z,4.10
2019-01-04T23:05:19.430Z,4.37
2019-01-04T23:08:05.546Z,4.03
2019-01-04T23:10:51.507Z,4.20
2019-01-04T23:13:38.892Z,4.53
2019-01-04T23:16:24.817Z,4.43
2019-01-04T23:19:12.199Z,5.40
2019-01-04T23:22:20.695Z,5.57
2019-01-04T23:25:07.611Z,4.80
2019-01-04T23:27:53.738Z,4.40
2019-01-04T23:30:56.493Z,3.97
2019-01-04T23:33:43.343Z,4.10
2019-01-04T23:36:33.556Z,4.50
2019-01-04T23:39:24.045Z,4.00
2019-01-04T23:42:11.403Z,3.77
2019-01-04T23:45:03.172Z,4.40
2019-01-04T23:47:50.531Z,3.80
2019-01-04T23:50:37.893Z,3.53
2019-01-04T23:53:28.340Z,4.20
2019-01-04T23:56:14.215Z,3.50
2019-01-04T23:59:00.292Z,3.03
